createdAt,value
2017-05-10T00:01:02.882Z,48.70
2017-05-10T00:03:30.269Z,49.10
2017-05-10T00:05:57.586Z,48.90
2017-05-10T00:08:24.753Z,49.30
2017-05-10T00:10:52.740Z,48.00
2017-05-10T00:13:19.909Z,47.90
2017-05-10T00:15:47.889Z,48.10
2017-05-10T00:18:15.073Z,48.80
2017-05-10T00:20:42.246Z,48.20
2017-05-10T00:23:09.417Z,48.50
2017-05-10T00:25:36.697Z,48.40
2017-05-10T00:28:03.855Z,48.40
2017-05-10T00:30:31.841Z,48.40
2017-05-10T00:32:59.163Z,48.00
2017-05-10T00:35:26.312Z,48.70
2017-05-10T00:37:53.462Z,48.20
2017-05-10T00:40:20.625Z,49.20
2017-05-10T00:42:47.774Z,48.40
2017-05-10T00:45:14.924Z,48.50
2017-05-10T00:47:42.847Z,48.50
2017-05-10T00:50:10.045Z,48.40
2017-05-10T00:52:37.217Z,48.20
2017-05-10T00:55:04.429Z,48.60
2017-05-10T00:57:32.358Z,49.30
2017-05-10T00:59:59.584Z,49.10
2017-05-10T01:02:26.770Z,48.50
2017-05-10T01:04:53.950Z,48.40
2017-05-10T01:07:21.929Z,48.80
2017-05-10T01:09:49.864Z,48.60
2017-05-10T01:12:17.185Z,49.70
2017-05-10T01:14:45.078Z,49.20
2017-05-10T01:17:12.517Z,48.40
2017-05-10T01:19:39.757Z,48.70
2017-05-10T01:22:07.641Z,48.60
2017-05-10T01:24:34.811Z,48.50
2017-05-10T01:27:01.970Z,48.60
2017-05-10T01:29:29.172Z,48.90
2017-05-10T01:31:57.006Z,50.40
2017-05-10T01:34:25.364Z,49.20
2017-05-10T01:36:52.534Z,49.40
2017-05-10T01:39:19.716Z,49.30
2017-05-10T01:41:46.896Z,49.70
2017-05-10T01:44:14.171Z,50.20
2017-05-10T01:46:41.691Z,49.30
2017-05-10T01:49:09.133Z,49.20
2017-05-10T01:51:36.582Z,49.30
2017-05-10T01:54:04.013Z,49.60
2017-05-10T01:56:31.829Z,48.70
2017-05-10T01:58:59.215Z,49.00
2017-05-10T02:01:27.348Z,48.90
2017-05-10T02:03:54.820Z,49.80
2017-05-10T02:06:22.225Z,49.60
2017-05-10T02:08:49.686Z,49.10
2017-05-10T02:11:17.117Z,48.90
2017-05-10T02:13:45.256Z,49.20
2017-05-10T02:16:13.271Z,49.00
2017-05-10T02:18:40.474Z,48.90
2017-05-10T02:21:07.693Z,49.20
2017-05-10T02:23:34.867Z,49.10
2017-05-10T02:26:02.196Z,48.90
2017-05-10T02:28:30.431Z,49.40
2017-05-10T02:30:57.882Z,49.40
2017-05-10T02:33:25.309Z,49.30
2017-05-10T02:38:26.426Z,49.70
2017-05-10T02:40:53.643Z,49.40
2017-05-10T02:43:20.837Z,50.60
2017-05-10T02:45:48.062Z,49.70
2017-05-10T02:48:15.275Z,49.50
2017-05-10T02:50:42.481Z,49.70
2017-05-10T02:53:09.749Z,49.70
2017-05-10T02:55:37.670Z,49.90
2017-05-10T02:58:04.873Z,50.10
2017-05-10T03:00:32.789Z,50.50
2017-05-10T03:02:59.997Z,50.40
2017-05-10T03:05:27.167Z,50.20
2017-05-10T03:07:55.572Z,50.40
2017-05-10T03:10:22.770Z,50.40
2017-05-10T03:12:49.963Z,50.10
2017-05-10T03:15:17.303Z,50.50
2017-05-10T03:17:44.670Z,49.80
2017-05-10T03:20:11.856Z,49.50
2017-05-10T03:22:39.309Z,49.70
2017-05-10T03:25:06.757Z,50.40
2017-05-10T03:27:34.209Z,50.00
2017-05-10T03:30:01.652Z,50.40
2017-05-10T03:32:29.487Z,49.60
2017-05-10T03:34:56.871Z,50.30
2017-05-10T03:37:24.297Z,50.20
2017-05-10T03:39:51.725Z,49.70
2017-05-10T03:42:20.336Z,50.20
2017-05-10T03:44:47.860Z,50.20
2017-05-10T03:47:15.998Z,50.20
2017-05-10T03:49:43.452Z,50.20
2017-05-10T03:52:10.774Z,51.30
2017-05-10T03:54:38.825Z,50.20
2017-05-10T03:57:06.265Z,50.20
2017-05-10T03:59:33.670Z,50.20
2017-05-10T04:02:01.593Z,50.10
2017-05-10T04:04:29.002Z,50.10
2017-05-10T04:06:56.433Z,50.10
2017-05-10T04:09:23.856Z,50.10
2017-05-10T04:11:51.187Z,50.50
2017-05-10T04:14:18.593Z,50.40
2017-05-10T04:16:45.993Z,50.10
2017-05-10T04:19:13.401Z,50.30
2017-05-10T04:21:40.840Z,50.60
2017-05-10T04:24:08.364Z,50.50
2017-05-10T04:26:35.787Z,50.40
2017-05-10T04:29:03.254Z,51.10
2017-05-10T04:31:30.680Z,50.80
2017-05-10T04:33:58.098Z,51.00
2017-05-10T04:36:26.613Z,51.30
2017-05-10T04:38:54.038Z,51.70
2017-05-10T04:41:21.493Z,52.50
2017-05-10T04:43:48.795Z,52.30
2017-05-10T04:46:16.144Z,52.10
2017-05-10T04:48:43.628Z,52.20
2017-05-10T04:51:11.067Z,52.10
2017-05-10T04:53:38.461Z,52.40
2017-05-10T04:56:05.827Z,53.10
2017-05-10T04:58:33.281Z,52.80
2017-05-10T05:01:00.736Z,53.70
2017-05-10T05:03:28.160Z,52.80
2017-05-10T05:05:55.573Z,51.60
2017-05-10T05:08:24.440Z,52.70
2017-05-10T05:10:51.846Z,51.10
2017-05-10T05:13:20.304Z,53.40
2017-05-10T05:15:47.923Z,52.10
2017-05-10T05:18:15.404Z,53.90
2017-05-10T05:20:42.801Z,53.40
2017-05-10T05:23:10.222Z,53.10
2017-05-10T05:25:38.421Z,52.20
2017-05-10T05:28:06.609Z,52.10
2017-05-10T05:30:33.796Z,51.80
2017-05-10T05:33:01.083Z,52.50
2017-05-10T05:35:28.370Z,51.80
2017-05-10T05:37:55.793Z,51.40
2017-05-10T05:40:23.117Z,51.50
2017-05-10T05:42:50.456Z,51.70
2017-05-10T05:45:18.199Z,51.70
2017-05-10T05:47:45.585Z,51.70
2017-05-10T05:50:12.993Z,52.50
2017-05-10T05:52:41.146Z,52.00
2017-05-10T05:55:08.530Z,52.00
2017-05-10T05:57:35.930Z,52.20
2017-05-10T06:00:03.480Z,50.90
2017-05-10T06:02:30.876Z,51.30
2017-05-10T06:04:58.274Z,50.60
2017-05-10T06:07:26.505Z,50.90
2017-05-10T06:09:54.855Z,50.90
2017-05-10T06:12:22.413Z,50.50
2017-05-10T06:14:50.424Z,50.20
2017-05-10T06:17:18.048Z,49.30
2017-05-10T06:19:45.243Z,50.40
2017-05-10T06:22:12.638Z,50.40
2017-05-10T06:24:40.135Z,47.90
2017-05-10T06:27:07.548Z,47.80
2017-05-10T06:29:35.148Z,48.30
2017-05-10T06:32:02.572Z,49.30
2017-05-10T06:34:30.007Z,47.70
2017-05-10T06:36:57.439Z,48.40
2017-05-10T06:39:25.624Z,45.90
2017-05-10T06:41:53.074Z,47.30
2017-05-10T06:44:20.664Z,46.80
2017-05-10T06:46:47.992Z,45.20
2017-05-10T06:49:15.428Z,44.70
2017-05-10T06:51:42.824Z,45.40
2017-05-10T06:54:10.221Z,45.20
2017-05-10T06:56:37.617Z,44.40
2017-05-10T06:59:05.775Z,43.40
2017-05-10T07:01:33.149Z,43.70
2017-05-10T07:04:01.273Z,45.10
2017-05-10T07:06:28.787Z,43.50
2017-05-10T07:08:56.204Z,42.60
2017-05-10T07:11:23.612Z,42.50
2017-05-10T07:13:51.175Z,42.70
2017-05-10T07:16:18.668Z,42.00
2017-05-10T07:18:46.065Z,43.00
2017-05-10T07:21:13.562Z,41.70
2017-05-10T07:23:40.983Z,41.30
2017-05-10T07:26:08.433Z,43.20
2017-05-10T07:28:35.847Z,40.70
2017-05-10T07:31:03.245Z,41.70
2017-05-10T07:33:30.673Z,41.90
2017-05-10T07:35:58.078Z,42.30
2017-05-10T07:38:25.400Z,40.90
2017-05-10T07:40:52.928Z,41.50
2017-05-10T07:43:20.381Z,40.80
2017-05-10T07:45:47.816Z,39.10
2017-05-10T07:48:15.220Z,42.10
2017-05-10T07:50:42.654Z,40.80
2017-05-10T07:53:10.820Z,40.50
2017-05-10T07:55:38.248Z,38.20
2017-05-10T07:58:05.667Z,39.30
2017-05-10T08:00:33.070Z,38.50
2017-05-10T08:03:00.374Z,38.30
2017-05-10T08:05:27.816Z,38.60
2017-05-10T08:07:55.258Z,37.40
2017-05-10T08:10:22.662Z,35.10
2017-05-10T08:12:50.123Z,32.50
2017-05-10T08:15:17.612Z,30.10
2017-05-10T08:17:45.225Z,28.50
2017-05-10T08:20:12.664Z,27.40
2017-05-10T08:22:40.143Z,26.50
2017-05-10T08:25:07.477Z,25.30
2017-05-10T08:27:35.619Z,25.90
2017-05-10T08:30:03.064Z,24.00
2017-05-10T08:32:30.455Z,25.30
2017-05-10T08:34:57.798Z,24.80
2017-05-10T08:37:25.925Z,23.00
2017-05-10T08:39:53.356Z,24.80
2017-05-10T08:42:21.505Z,25.20
2017-05-10T08:44:48.917Z,23.40
2017-05-10T08:47:16.325Z,25.10
2017-05-10T08:49:44.386Z,25.60
2017-05-10T08:52:11.829Z,27.00
2017-05-10T08:54:39.268Z,28.00
2017-05-10T08:57:06.677Z,29.20
2017-05-10T08:59:34.811Z,29.30
2017-05-10T09:02:02.205Z,28.70
2017-05-10T09:04:29.509Z,29.90
2017-05-10T09:06:56.849Z,29.20
2017-05-10T09:09:24.259Z,30.70
2017-05-10T09:11:51.658Z,31.90
2017-05-10T09:14:19.060Z,32.10
2017-05-10T09:16:46.467Z,34.10
2017-05-10T09:19:13.866Z,33.60
2017-05-10T09:21:42.020Z,32.80
2017-05-10T09:24:09.481Z,30.40
2017-05-10T09:26:37.584Z,32.90
2017-05-10T09:29:05.014Z,34.10
2017-05-10T09:31:32.492Z,31.90
2017-05-10T09:33:59.908Z,30.80
2017-05-10T09:36:27.339Z,32.20
2017-05-10T09:38:54.782Z,30.00
2017-05-10T09:41:22.188Z,31.40
2017-05-10T09:43:49.480Z,31.60
2017-05-10T09:46:16.892Z,33.20
2017-05-10T09:48:44.317Z,33.90
2017-05-10T09:51:11.646Z,29.60
2017-05-10T09:53:39.212Z,35.30
2017-05-10T09:56:06.621Z,35.50
2017-05-10T09:58:34.004Z,30.40
2017-05-10T10:01:01.536Z,32.60
2017-05-10T10:03:28.949Z,31.10
2017-05-10T10:05:56.320Z,33.70
2017-05-10T10:08:23.777Z,33.80
2017-05-10T10:10:51.369Z,30.20
2017-05-10T10:13:18.708Z,32.50
2017-05-10T10:15:46.159Z,30.90
2017-05-10T10:18:14.325Z,32.30
2017-05-10T10:20:41.754Z,28.50
2017-05-10T10:23:09.065Z,28.90
2017-05-10T10:25:37.225Z,32.40
2017-05-10T10:28:04.640Z,30.10
2017-05-10T10:30:32.039Z,31.50
2017-05-10T10:33:00.338Z,29.80
2017-05-10T10:35:27.773Z,34.80
2017-05-10T10:37:55.817Z,29.50
2017-05-10T10:40:23.172Z,31.60
2017-05-10T10:42:50.542Z,33.00
2017-05-10T10:45:18.001Z,28.60
2017-05-10T10:47:45.436Z,28.40
2017-05-10T10:50:13.640Z,29.70
2017-05-10T10:52:41.770Z,29.70
2017-05-10T10:55:09.229Z,31.00
2017-05-10T10:57:36.650Z,28.40
2017-05-10T11:00:04.064Z,31.80
2017-05-10T11:02:32.253Z,30.70
2017-05-10T11:05:00.408Z,29.60
2017-05-10T11:07:27.730Z,28.30
2017-05-10T11:09:55.129Z,27.90
2017-05-10T11:12:23.300Z,28.90
2017-05-10T11:14:50.744Z,30.80
2017-05-10T11:17:18.101Z,29.00
2017-05-10T11:19:45.372Z,29.70
2017-05-10T11:22:12.770Z,26.50
2017-05-10T11:24:40.225Z,29.40
2017-05-10T11:27:07.677Z,29.40
2017-05-10T11:29:35.097Z,29.10
2017-05-10T11:32:02.535Z,30.20
2017-05-10T11:34:29.954Z,28.60
2017-05-10T11:36:58.141Z,27.90
2017-05-10T11:39:25.481Z,27.60
2017-05-10T11:41:52.880Z,25.90
2017-05-10T11:44:21.016Z,27.80
2017-05-10T11:46:48.434Z,29.60
2017-05-10T11:49:15.861Z,28.60
2017-05-10T11:51:43.980Z,26.60
2017-05-10T11:54:12.637Z,30.40
2017-05-10T11:56:40.083Z,27.00
2017-05-10T11:59:07.385Z,27.30
2017-05-10T12:01:34.730Z,26.20
2017-05-10T12:04:02.175Z,29.90
2017-05-10T12:06:29.794Z,26.60
2017-05-10T12:08:57.236Z,28.50
2017-05-10T12:11:24.476Z,27.60
2017-05-10T12:13:51.749Z,27.50
2017-05-10T12:16:18.961Z,27.20
2017-05-10T12:18:46.333Z,26.40
2017-05-10T12:21:14.579Z,26.40
2017-05-10T12:23:41.815Z,26.40
2017-05-10T12:26:08.980Z,29.30
2017-05-10T12:28:36.168Z,28.00
2017-05-10T12:31:03.450Z,26.60
2017-05-10T12:33:30.853Z,25.60
2017-05-10T12:35:58.293Z,27.80
2017-05-10T12:38:25.801Z,26.60
2017-05-10T12:40:53.147Z,26.80
2017-05-10T12:43:20.672Z,26.60
2017-05-10T12:45:48.154Z,26.60
2017-05-10T12:48:15.508Z,26.50
2017-05-10T12:50:45.944Z,25.00
2017-05-10T12:53:13.243Z,26.60
2017-05-10T12:55:40.482Z,25.60
2017-05-10T12:58:07.727Z,24.50
2017-05-10T13:00:34.914Z,24.70
2017-05-10T13:03:07.675Z,24.50
2017-05-10T13:05:34.867Z,25.40
2017-05-10T13:08:02.057Z,25.40
2017-05-10T13:10:29.225Z,24.10
2017-05-10T13:12:56.394Z,26.50
2017-05-10T13:15:26.666Z,25.50
2017-05-10T13:17:56.445Z,25.20
2017-05-10T13:20:23.665Z,25.20
2017-05-10T13:22:50.960Z,25.90
2017-05-10T13:25:18.145Z,26.90
2017-05-10T13:27:46.256Z,27.70
2017-05-10T13:30:13.436Z,25.20
2017-05-10T13:32:40.612Z,25.40
2017-05-10T13:35:07.790Z,28.80
2017-05-10T13:37:35.131Z,24.70
2017-05-10T13:40:02.320Z,24.00
2017-05-10T13:42:29.509Z,27.30
2017-05-10T13:44:56.689Z,25.30
2017-05-10T13:47:23.869Z,25.80
2017-05-10T13:49:51.120Z,25.00
2017-05-10T13:52:18.535Z,25.00
2017-05-10T13:54:46.034Z,24.50
2017-05-10T13:57:13.367Z,25.70
2017-05-10T13:59:40.720Z,24.10
2017-05-10T14:02:08.155Z,26.30
2017-05-10T14:04:35.613Z,25.30
2017-05-10T14:07:03.040Z,24.70
2017-05-10T14:09:31.217Z,23.30
2017-05-10T14:11:58.632Z,23.10
2017-05-10T14:14:26.254Z,24.50
2017-05-10T14:16:53.677Z,26.50
2017-05-10T14:19:21.168Z,25.00
2017-05-10T14:21:48.557Z,23.30
2017-05-10T14:24:16.077Z,25.70
2017-05-10T14:26:43.517Z,24.00
2017-05-10T14:29:11.259Z,24.20
2017-05-10T14:31:38.716Z,25.30
2017-05-10T14:34:06.901Z,25.80
2017-05-10T14:36:35.071Z,25.80
2017-05-10T14:39:03.359Z,24.80
2017-05-10T14:41:30.776Z,24.90
2017-05-10T14:43:58.209Z,25.60
2017-05-10T14:46:25.519Z,25.80
2017-05-10T14:48:52.941Z,23.60
2017-05-10T14:51:20.372Z,24.40
2017-05-10T14:53:47.829Z,25.10
2017-05-10T14:56:15.353Z,24.50
2017-05-10T14:58:42.886Z,22.50
2017-05-10T15:01:10.416Z,25.10
2017-05-10T15:03:38.004Z,24.30
2017-05-10T15:06:05.463Z,26.10
2017-05-10T15:08:33.000Z,23.30
2017-05-10T15:11:00.427Z,25.00
2017-05-10T15:13:28.601Z,24.00
2017-05-10T15:15:56.862Z,23.20
2017-05-10T15:18:24.405Z,23.80
2017-05-10T15:20:52.155Z,23.40
2017-05-10T15:23:20.669Z,23.20
2017-05-10T15:25:47.977Z,23.10
2017-05-10T15:28:15.303Z,23.00
2017-05-10T15:30:42.504Z,23.60
2017-05-10T15:33:09.905Z,22.70
2017-05-10T15:35:39.612Z,25.50
2017-05-10T15:38:06.841Z,22.70
2017-05-10T15:40:34.075Z,23.90
2017-05-10T15:43:02.058Z,22.90
2017-05-10T15:45:29.319Z,25.00
2017-05-10T15:47:56.557Z,24.40
2017-05-10T15:50:23.931Z,25.10
2017-05-10T15:52:51.249Z,23.00
2017-05-10T15:55:18.703Z,22.50
2017-05-10T15:57:46.891Z,24.60
2017-05-10T16:00:14.102Z,23.80
2017-05-10T16:02:41.340Z,24.20
2017-05-10T16:05:08.572Z,24.50
2017-05-10T16:07:35.993Z,23.00
2017-05-10T16:10:03.192Z,26.60
2017-05-10T16:12:30.623Z,24.00
2017-05-10T16:14:57.914Z,24.50
2017-05-10T16:17:25.378Z,24.20
2017-05-10T16:19:52.854Z,23.40
2017-05-10T16:22:20.257Z,23.20
2017-05-10T16:24:47.804Z,23.40
2017-05-10T16:27:15.244Z,23.20
2017-05-10T16:29:42.700Z,22.80
2017-05-10T16:32:10.145Z,23.70
2017-05-10T16:34:37.515Z,26.10
2017-05-10T16:37:04.964Z,24.70
2017-05-10T16:39:32.310Z,24.20
2017-05-10T16:41:59.728Z,24.90
2017-05-10T16:44:27.180Z,25.10
2017-05-10T16:46:54.679Z,24.30
2017-05-10T16:49:22.137Z,25.20
2017-05-10T16:51:49.478Z,25.10
2017-05-10T16:54:16.844Z,25.40
2017-05-10T16:56:44.178Z,24.50
2017-05-10T16:59:11.668Z,25.70
2017-05-10T17:01:39.178Z,25.60
2017-05-10T17:04:07.404Z,25.20
2017-05-10T17:06:34.842Z,25.60
2017-05-10T17:09:11.041Z,26.80
2017-05-10T17:11:38.293Z,25.80
2017-05-10T17:14:06.320Z,25.40
2017-05-10T17:16:33.713Z,25.00
2017-05-10T17:19:06.379Z,25.80
2017-05-10T17:21:33.889Z,24.80
2017-05-10T17:24:02.134Z,25.30
2017-05-10T17:26:30.450Z,25.70
2017-05-10T17:28:57.985Z,25.90
2017-05-10T17:31:26.257Z,25.60
2017-05-10T17:33:55.125Z,27.60
2017-05-10T17:36:22.736Z,25.40
2017-05-10T17:38:50.277Z,26.40
2017-05-10T17:41:17.795Z,26.70
2017-05-10T17:43:45.306Z,26.90
2017-05-10T17:46:12.835Z,25.90
2017-05-10T17:48:40.365Z,26.00
2017-05-10T17:51:07.893Z,26.00
2017-05-10T17:53:35.485Z,27.10
2017-05-10T17:56:03.001Z,28.80
2017-05-10T17:58:30.683Z,26.90
2017-05-10T18:00:58.201Z,27.40
2017-05-10T18:03:25.780Z,27.50
2017-05-10T18:05:53.351Z,26.70
2017-05-10T18:08:20.908Z,27.30
2017-05-10T18:10:48.432Z,27.40
2017-05-10T18:13:15.949Z,27.30
2017-05-10T18:15:43.485Z,27.60
2017-05-10T18:18:11.024Z,27.40
2017-05-10T18:20:38.587Z,27.90
2017-05-10T18:23:06.097Z,28.40
2017-05-10T18:25:34.372Z,28.30
2017-05-10T18:28:03.242Z,28.80
2017-05-10T18:30:30.729Z,28.40
2017-05-10T18:32:58.249Z,29.20
2017-05-10T18:35:25.847Z,28.90
2017-05-10T18:37:53.408Z,28.90
2017-05-10T18:40:21.261Z,29.40
2017-05-10T18:42:48.931Z,29.50
2017-05-10T18:45:16.453Z,29.50
2017-05-10T18:47:43.984Z,29.40
2017-05-10T18:50:11.553Z,29.30
2017-05-10T18:52:39.155Z,29.80
2017-05-10T18:55:06.714Z,29.90
2017-05-10T18:57:34.993Z,29.60
2017-05-10T19:00:02.551Z,30.30
2017-05-10T19:02:30.189Z,29.90
2017-05-10T19:04:58.457Z,29.70
2017-05-10T19:07:26.171Z,29.70
2017-05-10T19:09:53.703Z,29.90
2017-05-10T19:12:21.954Z,30.40
2017-05-10T19:14:49.213Z,30.40
2017-05-10T19:17:16.430Z,31.30
2017-05-10T19:19:44.387Z,31.60
2017-05-10T19:22:12.373Z,31.80
2017-05-10T19:24:40.317Z,33.30
2017-05-10T19:27:08.326Z,31.30
2017-05-10T19:29:35.518Z,32.40
2017-05-10T19:32:02.712Z,31.70
2017-05-10T19:34:29.985Z,32.00
2017-05-10T19:36:57.302Z,32.30
2017-05-10T19:39:24.903Z,31.60
2017-05-10T19:41:52.226Z,32.90
2017-05-10T19:44:19.430Z,35.10
2017-05-10T19:46:46.600Z,33.90
2017-05-10T19:49:14.698Z,33.50
2017-05-10T19:51:41.965Z,34.20
2017-05-10T19:54:09.181Z,34.50
2017-05-10T19:56:37.147Z,32.50
2017-05-10T19:59:05.536Z,33.50
2017-05-10T20:01:33.530Z,33.40
2017-05-10T20:04:00.729Z,34.20
2017-05-10T20:06:27.939Z,34.20
2017-05-10T20:08:55.175Z,33.30
2017-05-10T20:11:22.631Z,34.10
2017-05-10T20:13:49.850Z,34.60
2017-05-10T20:16:17.786Z,34.20
2017-05-10T20:18:45.001Z,34.10
2017-05-10T20:21:12.212Z,33.90
2017-05-10T20:23:39.438Z,34.80
2017-05-10T20:26:06.656Z,34.30
2017-05-10T20:28:33.892Z,33.80
2017-05-10T20:31:01.161Z,34.80
2017-05-10T20:33:28.670Z,35.00
2017-05-10T20:35:55.901Z,35.10
2017-05-10T20:38:23.101Z,35.40
2017-05-10T20:40:51.029Z,35.80
2017-05-10T20:43:18.237Z,35.50
2017-05-10T20:45:45.876Z,36.00
2017-05-10T20:48:13.248Z,34.70
2017-05-10T20:50:40.483Z,35.50
2017-05-10T20:53:08.520Z,36.00
2017-05-10T20:55:35.764Z,36.10
2017-05-10T20:58:02.970Z,35.00
2017-05-10T21:00:30.348Z,35.80
2017-05-10T21:02:57.757Z,35.50
2017-05-10T21:05:24.956Z,36.50
2017-05-10T21:07:52.467Z,36.80
2017-05-10T21:10:19.911Z,35.70
2017-05-10T21:12:47.348Z,36.00
2017-05-10T21:15:14.836Z,37.40
2017-05-10T21:17:42.915Z,37.50
2017-05-10T21:20:10.555Z,37.20
2017-05-10T21:22:37.794Z,36.30
2017-05-10T21:25:05.013Z,35.50
2017-05-10T21:27:32.980Z,36.50
2017-05-10T21:30:00.222Z,37.20
2017-05-10T21:32:27.576Z,36.80
2017-05-10T21:34:55.108Z,37.00
2017-05-10T21:37:23.226Z,36.60
2017-05-10T21:39:51.419Z,37.30
2017-05-10T21:42:18.810Z,39.60
2017-05-10T21:44:46.064Z,38.70
2017-05-10T21:47:13.266Z,38.60
2017-05-10T21:49:40.716Z,38.20
2017-05-10T21:52:08.548Z,37.50
2017-05-10T21:54:36.537Z,38.30
2017-05-10T21:57:03.725Z,37.90
2017-05-10T21:59:30.943Z,37.90
2017-05-10T22:01:58.161Z,37.70
2017-05-10T22:04:26.095Z,38.00
2017-05-10T22:06:53.900Z,39.10
2017-05-10T22:09:21.128Z,38.90
2017-05-10T22:11:48.366Z,39.00
2017-05-10T22:14:16.393Z,38.60
2017-05-10T22:16:44.369Z,41.00
2017-05-10T22:19:12.325Z,38.90
2017-05-10T22:21:40.284Z,39.10
2017-05-10T22:24:07.481Z,40.10
2017-05-10T22:26:34.713Z,39.30
2017-05-10T22:29:02.053Z,40.20
2017-05-10T22:31:29.300Z,40.00
2017-05-10T22:33:56.564Z,40.00
2017-05-10T22:36:23.798Z,40.20
2017-05-10T22:38:51.040Z,40.00
2017-05-10T22:41:18.266Z,40.30
2017-05-10T22:43:45.472Z,40.60
2017-05-10T22:46:12.690Z,40.40
2017-05-10T22:48:39.917Z,40.60
2017-05-10T22:51:07.172Z,40.80
2017-05-10T22:53:34.385Z,40.90
2017-05-10T22:56:01.621Z,41.10
2017-05-10T22:58:28.881Z,41.00
2017-05-10T23:00:56.158Z,41.10
2017-05-10T23:03:23.433Z,41.00
2017-05-10T23:05:51.409Z,41.90
2017-05-10T23:08:18.726Z,41.10
2017-05-10T23:10:45.962Z,41.70
2017-05-10T23:13:13.189Z,41.10
2017-05-10T23:15:40.400Z,41.80
2017-05-10T23:18:07.597Z,41.90
2017-05-10T23:20:35.507Z,42.30
2017-05-10T23:23:02.702Z,42.00
2017-05-10T23:25:29.890Z,42.00
2017-05-10T23:27:57.072Z,41.90
2017-05-10T23:30:24.273Z,42.30
2017-05-10T23:32:51.520Z,42.40
2017-05-10T23:35:18.855Z,42.30
2017-05-10T23:37:46.042Z,42.30
2017-05-10T23:40:13.472Z,42.30
2017-05-10T23:42:41.645Z,42.50
2017-05-10T23:45:08.808Z,43.30
2017-05-10T23:47:36.206Z,42.40
2017-05-10T23:50:03.517Z,42.40
2017-05-10T23:52:30.939Z,42.40
2017-05-10T23:54:58.259Z,42.40
2017-05-10T23:57:25.726Z,43.30
2017-05-10T23:59:53.934Z,43.40
